Decoded Metar for VOCB (COIMBATORE in INDIA) (IATA:CJB) | Meteo·Mobile Aviation Weather
aviador You're here:

VOCB Decoded Metar

COIMBATORE in INDIA
Report Time2019-10-21 07:30:00
UTC Time2019-10-21 08:02:02
Flight Rules mvfr MVFR
Wind190° at 10 kt
W.Decomp.*RWY 23: 7.9 kt HW 6.2 kt LCW
Visibility6000 m
Phenomena:N/A
Clouds:Scattered 012 Hf
Broken 080 Hf
Expected CloudBase > 1,600 ft AGL from Temp-Dew spread
Ceiling8,000 ft
Temp27°C (ISA +15)
Dew Point23°C (79% RH)
Heat Index29.6°C
QNH1011 hPa
Density Alt3,432 ft
Elevation1,309 ft
Report Wrong Elevation
Raw Report
METAR VOCB 210730Z 19010KT 6000 SCT012 BKN080 27/23 Q1011 NOSIG=

Extra information for VOCB:More info

Metar Taf Metar & Taf Last 4 Metars F.Rules Stats Wind Profile Meteogram Temp Stats Airport Information Weather charts Add Link Nearby VenuesMetar ALERT Operation Metar Decoded Social comments